Time;durP1;ratioP1;P1;durP2;ratioP2;P2;SDS_P1;SDS_P2;PMS_P1;PMS_P2;Temp;Humidity;BMP_temperature;BMP_pressure;BME280_temperature;BME280_humidity;BME280_pressure;Samples;Min_cycle;Max_cycle;Signal;HPM_P1;HPM_P2
2022/09/03 00:01:50;;;;;;;5.40;2.00;;;15.00;6.20;;;;;;5045726;28;20463;-81
2022/09/03 00:04:24;;;;;;;4.97;2.10;;;15.00;6.40;;;;;;5045841;28;20452;-81
2022/09/03 00:07:00;;;;;;;7.10;2.37;;;15.00;6.50;;;;;;5045123;28;20484;-80
2022/09/03 00:09:32;;;;;;;5.80;2.10;;;15.00;6.70;;;;;;5048154;28;20459;-81
2022/09/03 00:12:05;;;;;;;4.73;1.70;;;15.00;6.50;;;;;;5049466;28;20440;-81
2022/09/03 00:14:37;;;;;;;4.77;1.53;;;14.90;6.60;;;;;;5050249;28;20543;-81
2022/09/03 00:17:09;;;;;;;7.43;1.90;;;15.00;6.30;;;;;;5049433;28;20472;-81
2022/09/03 00:19:42;;;;;;;6.00;1.97;;;15.00;6.20;;;;;;5051044;28;20480;-81
2022/09/03 00:22:13;;;;;;;6.47;2.30;;;15.00;6.50;;;;;;5049961;28;20460;-81
2022/09/03 00:24:43;;;;;;;6.20;1.90;;;15.10;6.30;;;;;;5049469;28;20452;-80
2022/09/03 00:27:15;;;;;;;4.83;1.73;;;15.00;6.20;;;;;;5049292;28;20567;-81
2022/09/03 00:29:47;;;;;;;6.63;1.90;;;15.20;6.30;;;;;;5049674;28;20444;-81
2022/09/03 00:32:19;;;;;;;4.87;1.73;;;15.10;6.20;;;;;;5049377;28;20817;-81
2022/09/03 00:34:51;;;;;;;5.33;2.20;;;15.00;6.40;;;;;;5049436;28;20456;-81
2022/09/03 00:37:17;;;;;;;4.73;1.60;;;15.00;6.50;;;;;;5049739;28;20459;-81
2022/09/03 00:39:45;;;;;;;6.40;1.70;;;15.00;6.60;;;;;;5049848;28;20482;-81
2022/09/03 00:42:30;;;;;;;8.07;1.77;;;15.20;6.50;;;;;;5049278;28;20448;-81
2022/09/03 00:45:18;;;;;;;8.77;2.00;;;15.10;6.50;;;;;;5049251;28;20875;-81
2022/09/03 00:47:58;;;;;;;4.57;1.93;;;15.10;6.60;;;;;;5048728;28;20452;-81
2022/09/03 00:50:34;;;;;;;6.30;2.23;;;15.10;6.30;;;;;;5049849;28;20452;-81
2022/09/03 00:53:10;;;;;;;4.80;1.83;;;15.10;6.90;;;;;;5049844;28;20447;-81
2022/09/03 00:55:57;;;;;;;4.47;1.90;;;15.00;7.00;;;;;;5048934;28;20471;-81
2022/09/03 00:58:44;;;;;;;6.57;2.40;;;15.00;7.60;;;;;;5049171;28;20844;-81
2022/09/03 01:01:18;;;;;;;5.60;1.73;;;15.00;7.10;;;;;;5049483;28;20455;-81
2022/09/03 01:03:55;;;;;;;4.63;1.77;;;15.00;7.20;;;;;;5048579;28;20456;-81
2022/09/03 01:06:30;;;;;;;10.23;2.07;;;15.10;8.00;;;;;;5048941;28;20484;-81
2022/09/03 01:09:10;;;;;;;5.90;2.10;;;15.00;8.00;;;;;;5048572;28;20448;-81
2022/09/03 01:11:50;;;;;;;6.30;2.00;;;15.00;7.50;;;;;;5049406;28;20542;-81
2022/09/03 01:14:29;;;;;;;7.00;2.20;;;15.00;8.00;;;;;;5048730;28;20448;-81
2022/09/03 01:17:06;;;;;;;6.67;2.10;;;15.10;8.10;;;;;;5049292;28;20468;-81
2022/09/03 01:20:03;;;;;;;6.83;1.70;;;15.30;7.30;;;;;;5049113;28;20490;-81
2022/09/03 01:23:11;;;;;;;4.30;1.60;;;15.20;7.20;;;;;;5048686;28;20494;-80
2022/09/03 01:25:50;;;;;;;10.00;1.60;;;15.00;7.70;;;;;;5048779;28;20849;-81
2022/09/03 01:28:31;;;;;;;4.10;1.20;;;15.00;8.10;;;;;;5048910;28;20456;-81
2022/09/03 01:31:10;;;;;;;4.60;1.80;;;14.90;8.50;;;;;;5049169;28;20463;-80
2022/09/03 01:33:44;;;;;;;14.43;1.83;;;14.80;8.50;;;;;;5048372;28;20455;-81
2022/09/03 01:36:22;;;;;;;5.23;1.90;;;14.90;8.50;;;;;;5048521;28;20464;-81
2022/09/03 01:38:53;;;;;;;4.67;1.90;;;14.80;8.50;;;;;;5048464;28;20476;-81
2022/09/03 01:44:31;;;;;;;5.20;1.60;;;14.70;8.50;;;;;;5047971;28;20463;-81
2022/09/03 01:47:09;;;;;;;4.60;1.60;;;14.80;9.50;;;;;;5048796;28;20476;-81
2022/09/03 01:49:41;;;;;;;6.53;1.70;;;14.80;8.50;;;;;;5048062;28;20516;-81
2022/09/03 01:52:14;;;;;;;4.57;1.80;;;14.90;8.60;;;;;;5048250;28;20456;-81
2022/09/03 01:54:55;;;;;;;4.90;1.60;;;15.00;8.60;;;;;;5047984;28;20461;-81
2022/09/03 01:57:41;;;;;;;4.27;1.50;;;14.90;8.50;;;;;;5048110;28;20972;-81
2022/09/03 02:00:12;;;;;;;4.93;1.60;;;15.00;8.60;;;;;;5047617;28;20480;-81
2022/09/03 02:02:40;;;;;;;5.10;1.90;;;15.00;8.60;;;;;;5048120;28;20449;-81
2022/09/03 02:05:11;;;;;;;4.30;1.50;;;15.10;8.70;;;;;;5047041;28;20476;-80
2022/09/03 02:07:41;;;;;;;5.10;1.73;;;15.10;8.70;;;;;;5047758;28;20452;-81
2022/09/03 02:10:13;;;;;;;4.87;1.50;;;15.00;8.60;;;;;;5046542;28;20459;-81
2022/09/03 02:12:45;;;;;;;4.43;1.60;;;15.20;8.70;;;;;;5047895;28;20459;-82
2022/09/03 02:15:16;;;;;;;4.60;1.40;;;15.10;8.70;;;;;;5047620;28;20477;-81
2022/09/03 02:17:45;;;;;;;5.00;1.70;;;15.10;8.70;;;;;;5047708;28;20462;-81
2022/09/03 02:20:18;;;;;;;4.67;1.60;;;15.00;8.60;;;;;;5047922;28;20472;-80
2022/09/03 02:22:46;;;;;;;5.33;2.00;;;14.90;8.60;;;;;;5047284;28;20452;-81
2022/09/03 02:25:13;;;;;;;4.50;1.67;;;14.90;8.60;;;;;;5047543;28;20472;-81
2022/09/03 02:27:40;;;;;;;7.53;1.90;;;14.70;9.10;;;;;;5047830;28;20453;-81
2022/09/03 02:30:09;;;;;;;5.53;1.80;;;14.70;9.60;;;;;;5047300;28;20449;-81
2022/09/03 02:32:37;;;;;;;9.10;2.30;;;14.60;10.20;;;;;;5046766;28;20453;-81
2022/09/03 02:35:04;;;;;;;5.10;2.17;;;14.60;10.50;;;;;;5047321;28;20472;-81
2022/09/03 02:37:31;;;;;;;4.50;1.40;;;14.50;10.50;;;;;;5048489;28;20451;-81
2022/09/03 02:39:58;;;;;;;4.33;1.43;;;14.50;10.90;;;;;;5047782;28;20480;-81
2022/09/03 02:42:25;;;;;;;6.83;1.80;;;14.50;10.50;;;;;;5046299;28;20452;-81
2022/09/03 02:44:55;;;;;;;7.83;1.50;;;14.50;10.80;;;;;;5046510;28;20459;-81
2022/09/03 02:47:23;;;;;;;4.50;1.60;;;14.70;10.80;;;;;;5046840;28;20452;-81
2022/09/03 02:49:51;;;;;;;10.83;2.17;;;14.60;11.00;;;;;;5046736;28;20880;-81
2022/09/03 02:52:18;;;;;;;7.70;1.90;;;14.60;11.30;;;;;;5047437;28;20452;-82
2022/09/03 02:54:44;;;;;;;4.80;1.70;;;14.40;11.40;;;;;;5046956;28;20453;-81
2022/09/03 02:57:13;;;;;;;4.90;1.80;;;14.30;11.60;;;;;;5046960;28;20452;-80
2022/09/03 02:59:42;;;;;;;4.90;2.03;;;14.30;11.90;;;;;;5046745;28;20524;-80
2022/09/03 03:02:10;;;;;;;5.60;1.57;;;14.30;12.20;;;;;;5046505;28;20445;-81
2022/09/03 03:04:37;;;;;;;4.80;1.67;;;14.30;12.40;;;;;;5046218;28;20448;-81
2022/09/03 03:07:05;;;;;;;4.43;1.50;;;14.10;12.60;;;;;;5046592;28;20487;-81
2022/09/03 03:09:32;;;;;;;7.50;1.70;;;14.10;13.50;;;;;;5046932;28;20448;-81
2022/09/03 03:11:59;;;;;;;5.50;1.97;;;14.10;13.50;;;;;;5046182;28;20448;-81
2022/09/03 03:14:26;;;;;;;8.10;1.70;;;14.20;13.90;;;;;;5046096;28;20453;-81
2022/09/03 03:16:52;;;;;;;4.50;1.70;;;14.00;13.50;;;;;;5046334;28;20482;-80
2022/09/03 03:19:19;;;;;;;7.60;1.73;;;14.00;13.40;;;;;;5045304;28;20488;-80
2022/09/03 03:21:46;;;;;;;7.83;1.80;;;14.00;14.00;;;;;;5044225;28;20452;-79
2022/09/03 03:24:14;;;;;;;7.93;2.30;;;14.00;14.20;;;;;;5045979;28;20452;-79
2022/09/03 03:26:41;;;;;;;4.80;2.17;;;13.90;14.80;;;;;;5046035;28;20464;-80
2022/09/03 03:29:08;;;;;;;8.00;1.73;;;13.80;15.20;;;;;;5045824;28;20456;-81
2022/09/03 03:31:36;;;;;;;4.43;1.47;;;13.60;15.40;;;;;;5045680;28;20452;-80
2022/09/03 03:34:03;;;;;;;5.40;1.80;;;13.50;17.30;;;;;;5045804;28;20463;-80
2022/09/03 03:36:31;;;;;;;4.67;1.80;;;13.40;17.00;;;;;;5046246;28;21015;-80
2022/09/03 03:39:00;;;;;;;7.20;2.07;;;13.30;17.50;;;;;;5046485;28;20483;-81
2022/09/03 03:41:31;;;;;;;7.20;2.20;;;13.20;17.90;;;;;;5046528;28;20444;-80
2022/09/03 03:44:00;;;;;;;5.00;1.73;;;13.00;18.20;;;;;;5045801;28;20507;-80
2022/09/03 03:46:30;;;;;;;4.90;1.93;;;13.00;19.60;;;;;;5046528;28;20471;-80
2022/09/03 03:48:57;;;;;;;4.50;1.80;;;12.90;20.80;;;;;;5046284;28;20468;-81
2022/09/03 03:51:24;;;;;;;5.40;1.63;;;12.70;21.00;;;;;;5045149;28;20452;-80
2022/09/03 03:53:55;;;;;;;7.30;2.07;;;12.80;21.80;;;;;;5046382;28;20456;-80
2022/09/03 03:56:23;;;;;;;5.37;1.83;;;12.60;22.40;;;;;;5046329;28;20468;-80
2022/09/03 03:58:51;;;;;;;4.90;2.07;;;12.50;22.80;;;;;;5046115;28;20448;-80
2022/09/03 04:01:19;;;;;;;6.83;2.23;;;12.40;23.60;;;;;;5046832;28;20453;-80
2022/09/03 04:03:47;;;;;;;5.47;1.60;;;12.40;24.10;;;;;;5045547;28;20462;-80
2022/09/03 04:06:15;;;;;;;5.40;2.10;;;12.40;24.70;;;;;;5045290;28;20480;-80
2022/09/03 04:08:44;;;;;;;5.97;2.40;;;12.30;23.40;;;;;;5045106;28;20490;-80
2022/09/03 04:11:13;;;;;;;7.63;1.90;;;12.40;24.70;;;;;;5045494;28;20486;-80
2022/09/03 04:13:41;;;;;;;4.50;1.70;;;12.30;25.00;;;;;;5045233;28;20452;-80
2022/09/03 04:16:11;;;;;;;4.77;2.10;;;12.20;25.60;;;;;;5044572;28;20468;-80
2022/09/03 04:18:40;;;;;;;5.40;2.30;;;12.30;26.40;;;;;;5045176;28;20444;-80
2022/09/03 04:21:08;;;;;;;4.97;1.90;;;12.20;26.30;;;;;;5044553;28;20480;-80
2022/09/03 04:23:37;;;;;;;5.70;2.20;;;12.20;28.00;;;;;;5045394;28;20460;-80
2022/09/03 04:26:04;;;;;;;5.23;2.27;;;12.20;28.50;;;;;;5045274;28;20544;-81
2022/09/03 04:28:32;;;;;;;5.37;2.37;;;12.20;28.50;;;;;;5044941;28;20928;-81
2022/09/03 04:31:01;;;;;;;6.30;2.10;;;12.10;28.50;;;;;;5045722;28;20452;-80
2022/09/03 04:33:29;;;;;;;5.70;2.20;;;12.10;27.70;;;;;;5045008;28;20448;-80
2022/09/03 04:36:04;;;;;;;4.80;2.03;;;12.30;26.80;;;;;;5044961;28;20527;-81
2022/09/03 04:38:31;;;;;;;6.70;2.00;;;12.30;26.30;;;;;;5046685;28;20460;-80
2022/09/03 04:40:59;;;;;;;4.80;1.80;;;12.40;26.30;;;;;;5045634;28;20471;-80
2022/09/03 04:43:26;;;;;;;4.77;1.90;;;12.60;25.80;;;;;;5045548;28;20452;-80
2022/09/03 04:45:57;;;;;;;5.90;1.93;;;12.70;25.30;;;;;;5045208;28;20479;-81
2022/09/03 04:48:23;;;;;;;5.80;1.77;;;12.60;24.80;;;;;;5045063;28;20456;-79
2022/09/03 04:50:51;;;;;;;5.40;1.67;;;12.70;24.80;;;;;;5044920;28;20460;-81
2022/09/03 04:53:18;;;;;;;8.67;2.10;;;12.90;24.60;;;;;;5044551;28;20456;-80
2022/09/03 04:55:45;;;;;;;4.17;1.67;;;12.80;24.10;;;;;;5045383;28;20475;-80
2022/09/03 04:58:12;;;;;;;5.97;1.87;;;12.90;25.10;;;;;;5049550;28;20463;-80
2022/09/03 05:00:39;;;;;;;4.80;1.70;;;12.90;24.80;;;;;;5048404;28;20485;-79
2022/09/03 05:03:05;;;;;;;8.10;2.00;;;12.90;24.90;;;;;;5048890;28;20460;-79
2022/09/03 05:05:33;;;;;;;5.67;2.23;;;12.90;25.00;;;;;;5048387;28;20456;-80
2022/09/03 05:08:01;;;;;;;5.10;2.00;;;12.60;25.60;;;;;;5049091;28;20465;-80
2022/09/03 05:10:28;;;;;;;5.50;2.20;;;12.70;26.80;;;;;;5048934;28;20460;-80
2022/09/03 05:12:59;;;;;;;5.50;2.47;;;12.70;26.30;;;;;;5049042;28;20444;-80
2022/09/03 05:15:27;;;;;;;6.00;2.17;;;12.80;26.60;;;;;;5049184;28;20472;-81
2022/09/03 05:17:57;;;;;;;4.10;1.70;;;13.00;25.70;;;;;;5048528;28;20453;-80
2022/09/03 05:20:24;;;;;;;8.27;2.00;;;13.30;24.60;;;;;;5047574;28;20472;-80
2022/09/03 05:22:51;;;;;;;5.30;1.70;;;13.40;24.60;;;;;;5050223;28;20506;-81
2022/09/03 05:25:19;;;;;;;5.87;1.60;;;13.60;24.80;;;;;;5048311;28;20472;-81
2022/09/03 05:27:46;;;;;;;4.97;1.80;;;13.60;24.50;;;;;;5048400;28;20453;-80
2022/09/03 05:30:13;;;;;;;5.07;2.10;;;13.70;23.40;;;;;;5047796;28;20502;-82
2022/09/03 05:32:40;;;;;;;12.70;1.73;;;13.90;22.60;;;;;;5049042;28;20456;-81
2022/09/03 05:35:09;;;;;;;5.77;2.00;;;13.90;22.70;;;;;;5048569;28;20468;-81
2022/09/03 05:37:36;;;;;;;5.23;1.87;;;13.90;22.60;;;;;;5048628;28;20515;-81
2022/09/03 05:40:04;;;;;;;4.83;1.63;;;14.10;22.80;;;;;;5047334;28;20476;-80
2022/09/03 05:42:37;;;;;;;4.43;1.67;;;14.10;22.80;;;;;;5048632;28;20452;-80
2022/09/03 05:45:08;;;;;;;6.07;1.97;;;14.20;23.50;;;;;;5061361;28;20848;-80
2022/09/03 05:47:35;;;;;;;5.37;2.00;;;14.40;22.00;;;;;;5064275;28;20839;-79
2022/09/03 05:50:02;;;;;;;4.90;1.83;;;14.50;21.70;;;;;;5061364;28;20956;-86
2022/09/03 05:52:48;;;;;;;4.80;1.83;;;14.80;20.70;;;;;;5065027;28;20497;-85
2022/09/03 05:55:15;;;;;;;5.73;2.27;;;14.80;20.50;;;;;;5058926;28;20479;-82
2022/09/03 05:57:44;;;;;;;8.80;1.67;;;14.90;20.00;;;;;;5055598;28;20456;-83
2022/09/03 06:00:11;;;;;;;13.33;2.03;;;15.00;19.20;;;;;;5057900;28;21072;-83
2022/09/03 06:02:38;;;;;;;6.53;2.07;;;15.20;18.60;;;;;;5058222;28;20477;-85
2022/09/03 06:05:06;;;;;;;4.30;1.40;;;15.40;17.20;;;;;;5058190;28;21011;-85
2022/09/03 06:07:33;;;;;;;7.30;2.00;;;15.70;17.30;;;;;;5058765;28;20448;-86
2022/09/03 06:10:03;;;;;;;4.40;1.50;;;15.70;16.60;;;;;;5057903;28;20448;-85
2022/09/03 06:12:30;;;;;;;4.40;1.60;;;15.80;16.70;;;;;;5059080;28;20491;-85
2022/09/03 06:14:58;;;;;;;5.23;1.50;;;15.90;15.80;;;;;;5057986;28;20451;-85
2022/09/03 06:17:25;;;;;;;6.30;1.63;;;16.20;15.60;;;;;;5058274;28;20456;-85
2022/09/03 06:19:51;;;;;;;6.70;2.17;;;16.30;15.10;;;;;;5057996;28;20471;-85
2022/09/03 06:22:18;;;;;;;6.87;1.97;;;16.40;14.20;;;;;;5058855;28;20456;-83
2022/09/03 06:24:45;;;;;;;5.27;1.60;;;16.60;14.10;;;;;;5058467;28;20448;-83
2022/09/03 06:27:11;;;;;;;5.10;1.70;;;16.70;13.00;;;;;;5057573;28;20463;-85
2022/09/03 06:29:38;;;;;;;5.53;1.67;;;16.90;12.70;;;;;;5058428;28;20463;-85
2022/09/03 06:32:06;;;;;;;5.40;1.63;;;17.00;12.20;;;;;;5056121;28;20491;-86
2022/09/03 06:34:33;;;;;;;7.50;2.07;;;17.10;11.40;;;;;;5057952;28;20460;-85
2022/09/03 06:37:00;;;;;;;5.13;1.60;;;17.20;10.90;;;;;;5058005;28;20867;-85
2022/09/03 06:39:27;;;;;;;5.13;1.83;;;17.30;10.30;;;;;;5058393;28;20912;-86
2022/09/03 06:41:53;;;;;;;4.73;1.60;;;17.40;10.30;;;;;;5060213;28;20482;-85
2022/09/03 06:44:20;;;;;;;4.73;1.40;;;17.50;10.40;;;;;;5058678;28;20493;-85
2022/09/03 06:46:47;;;;;;;5.53;1.63;;;17.60;10.50;;;;;;5058715;28;20477;-83
2022/09/03 06:49:15;;;;;;;4.40;1.53;;;17.70;9.90;;;;;;5061984;28;20464;-82
2022/09/03 06:51:43;;;;;;;10.57;1.93;;;17.80;9.30;;;;;;5049663;28;20451;-82
2022/09/03 06:54:11;;;;;;;4.50;1.50;;;17.90;9.20;;;;;;5042862;28;20464;-81
2022/09/03 06:56:39;;;;;;;4.47;1.50;;;17.70;8.70;;;;;;5043898;28;20479;-82
2022/09/03 06:59:08;;;;;;;5.10;1.37;;;17.90;8.80;;;;;;5041308;28;20829;-81
2022/09/03 07:01:35;;;;;;;6.97;2.80;;;18.00;8.70;;;;;;5043050;28;21004;-82
2022/09/03 07:04:04;;;;;;;5.30;1.90;;;18.00;8.30;;;;;;5042380;28;20925;-81
2022/09/03 07:06:35;;;;;;;5.20;1.53;;;18.20;8.40;;;;;;5041412;28;20490;-82
2022/09/03 07:09:02;;;;;;;5.03;1.40;;;18.30;7.40;;;;;;5042562;28;20482;-81
2022/09/03 07:11:32;;;;;;;5.27;1.57;;;18.40;6.60;;;;;;5042773;28;20833;-83
2022/09/03 07:13:59;;;;;;;4.73;1.40;;;18.50;6.40;;;;;;5042979;28;20452;-81
2022/09/03 07:16:28;;;;;;;7.63;2.10;;;18.60;6.60;;;;;;5042030;28;20476;-83
2022/09/03 07:18:56;;;;;;;4.63;1.50;;;18.70;5.60;;;;;;5042131;28;20428;-83
2022/09/03 07:21:24;;;;;;;5.50;1.80;;;18.90;5.60;;;;;;5042442;28;20480;-82
2022/09/03 07:23:53;;;;;;;4.10;1.40;;;19.00;5.30;;;;;;5042808;28;20464;-82
2022/09/03 07:26:22;;;;;;;4.60;1.50;;;19.10;4.50;;;;;;5041601;28;20474;-81
2022/09/03 07:28:50;;;;;;;5.00;1.63;;;19.30;4.00;;;;;;5042595;28;20536;-82
2022/09/03 07:31:24;;;;;;;4.70;1.53;;;19.40;4.10;;;;;;5041551;28;20529;-82
2022/09/03 07:33:54;;;;;;;5.33;1.80;;;19.50;3.40;;;;;;5042221;28;20484;-83
2022/09/03 07:36:22;;;;;;;5.37;2.00;;;19.70;3.10;;;;;;5041506;28;20477;-82
2022/09/03 07:38:50;;;;;;;5.43;1.70;;;19.90;2.30;;;;;;5041746;28;20451;-83
2022/09/03 07:41:18;;;;;;;7.80;1.60;;;20.20;2.60;;;;;;5042948;28;20861;-82
2022/09/03 07:43:47;;;;;;;5.10;1.63;;;20.50;1.90;;;;;;5042316;28;20451;-83
2022/09/03 07:46:15;;;;;;;5.50;1.70;;;20.70;1.00;;;;;;5042295;28;20505;-81
2022/09/03 07:48:42;;;;;;;4.70;1.60;;;20.70;1.00;;;;;;5051239;28;20451;-82
2022/09/03 07:51:10;;;;;;;5.33;1.60;;;20.60;1.00;;;;;;5063586;28;20944;-83
2022/09/03 07:53:37;;;;;;;6.73;1.67;;;20.70;1.00;;;;;;5063325;28;20538;-82
2022/09/03 07:56:05;;;;;;;4.97;1.53;;;20.60;1.00;;;;;;5062460;28;20469;-82
2022/09/03 07:58:34;;;;;;;4.73;1.73;;;20.60;1.00;;;;;;5061034;28;20457;-82
2022/09/03 08:01:07;;;;;;;5.47;1.50;;;20.50;1.00;;;;;;5059503;28;20858;-84
2022/09/03 08:03:33;;;;;;;55.07;6.53;;;20.70;1.00;;;;;;5061055;28;20516;-86
2022/09/03 08:06:01;;;;;;;19.47;2.90;;;21.00;1.00;;;;;;5057730;28;20480;-84
2022/09/03 08:08:28;;;;;;;15.77;2.00;;;21.10;1.00;;;;;;5057966;28;20462;-86
2022/09/03 08:10:55;;;;;;;30.23;4.20;;;21.30;1.00;;;;;;5059630;28;20454;-85
2022/09/03 08:13:22;;;;;;;6.90;2.60;;;21.20;1.00;;;;;;5057345;28;20462;-81
2022/09/03 08:15:55;;;;;;;11.93;1.90;;;21.00;1.00;;;;;;5060052;28;20474;-82
2022/09/03 08:18:26;;;;;;;86.47;4.90;;;20.80;1.00;;;;;;5056016;28;20449;-82
2022/09/03 08:20:52;;;;;;;21.50;2.63;;;21.00;1.00;;;;;;5055975;28;20532;-85
2022/09/03 08:23:19;;;;;;;165.77;16.43;;;20.90;1.00;;;;;;5063315;28;20456;-85
2022/09/03 08:25:46;;;;;;;31.13;4.67;;;21.00;1.00;;;;;;5060207;28;21006;-84
2022/09/03 08:28:12;;;;;;;8.90;1.80;;;21.20;1.00;;;;;;5056030;28;20504;-84
2022/09/03 08:30:39;;;;;;;5.20;1.40;;;21.00;1.00;;;;;;5056231;28;20457;-82
2022/09/03 08:33:07;;;;;;;5.00;1.90;;;21.10;1.00;;;;;;5059508;28;20469;-82
2022/09/03 08:35:36;;;;;;;5.30;1.37;;;21.10;1.00;;;;;;5058881;28;21009;-82
2022/09/03 08:38:05;;;;;;;6.03;1.53;;;21.20;1.00;;;;;;5059764;28;20819;-82
2022/09/03 08:40:34;;;;;;;6.37;1.30;;;21.40;1.00;;;;;;5060082;28;20510;-82
2022/09/03 08:43:10;;;;;;;5.70;1.30;;;22.20;1.00;;;;;;5058790;28;20456;-82
2022/09/03 08:45:38;;;;;;;4.70;1.67;;;22.40;1.00;;;;;;5060283;28;20472;-83
2022/09/03 08:48:10;;;;;;;9.90;1.60;;;23.10;1.00;;;;;;5060232;28;20887;-83
2022/09/03 08:50:41;;;;;;;22.70;2.63;;;23.70;1.00;;;;;;5061888;28;20962;-83
2022/09/03 08:53:15;;;;;;;9.00;2.13;;;24.30;1.00;;;;;;5064370;28;20997;-83
2022/09/03 08:55:47;;;;;;;13.10;2.00;;;24.50;1.00;;;;;;5064158;28;20475;-84
2022/09/03 08:58:17;;;;;;;6.20;2.00;;;24.40;1.00;;;;;;5065458;28;20458;-84
2022/09/03 09:00:50;;;;;;;6.20;1.50;;;24.50;1.00;;;;;;5062788;28;20479;-84
2022/09/03 09:03:37;;;;;;;9.33;2.10;;;24.60;1.00;;;;;;5063173;28;20425;-83
2022/09/03 09:06:14;;;;;;;7.57;2.03;;;25.00;1.00;;;;;;5063517;28;20479;-83
2022/09/03 09:08:52;;;;;;;4.27;1.27;;;24.80;1.00;;;;;;5064430;28;20425;-82
2022/09/03 09:11:30;;;;;;;5.77;1.70;;;24.60;1.00;;;;;;5059021;28;20454;-83
2022/09/03 09:14:02;;;;;;;8.00;1.80;;;24.30;1.00;;;;;;5057012;28;20458;-81
2022/09/03 09:16:39;;;;;;;5.80;1.60;;;24.40;1.00;;;;;;5058437;28;20995;-83
2022/09/03 09:19:18;;;;;;;6.00;1.73;;;24.30;1.00;;;;;;5061382;28;20966;-83
2022/09/03 09:21:49;;;;;;;4.30;1.30;;;24.30;1.00;;;;;;5062799;28;21077;-83
2022/09/03 09:24:22;;;;;;;5.17;1.60;;;24.20;1.00;;;;;;5061785;28;20455;-82
2022/09/03 09:26:49;;;;;;;6.83;1.50;;;24.00;1.00;;;;;;5062254;28;20478;-83
2022/09/03 09:29:16;;;;;;;4.57;1.43;;;24.00;1.00;;;;;;5064621;28;20458;-82
2022/09/03 09:31:44;;;;;;;5.17;1.73;;;23.90;1.00;;;;;;5070774;28;20453;-82
2022/09/03 09:34:12;;;;;;;6.83;1.67;;;24.20;1.00;;;;;;5064484;28;20426;-82
2022/09/03 09:36:46;;;;;;;4.90;1.70;;;24.70;1.00;;;;;;5058835;28;20478;-82
2022/09/03 09:39:15;;;;;;;5.60;1.80;;;24.60;1.00;;;;;;5062451;28;20458;-82
2022/09/03 09:41:42;;;;;;;7.27;1.80;;;25.00;1.00;;;;;;5062406;28;20506;-83
2022/09/03 09:44:18;;;;;;;5.80;1.87;;;25.50;1.00;;;;;;5061688;28;20477;-80
2022/09/03 09:46:45;;;;;;;5.53;1.40;;;25.10;1.00;;;;;;5062277;28;20532;-82
2022/09/03 09:49:30;;;;;;;4.70;1.50;;;25.10;1.00;;;;;;5062434;28;20426;-82
2022/09/03 09:52:07;;;;;;;4.97;1.57;;;25.90;1.00;;;;;;5063838;28;20451;-82
2022/09/03 09:54:34;;;;;;;5.30;2.07;;;26.10;1.00;;;;;;5065414;28;20863;-83
2022/09/03 09:57:04;;;;;;;4.90;1.87;;;26.10;1.00;;;;;;5064357;28;20450;-82
2022/09/03 09:59:32;;;;;;;5.07;2.00;;;26.10;1.00;;;;;;5065142;28;20886;-82
2022/09/03 10:02:09;;;;;;;6.67;1.50;;;26.00;1.00;;;;;;5063911;28;20854;-82
2022/09/03 10:04:38;;;;;;;6.17;1.80;;;25.40;1.00;;;;;;5066683;28;20451;-81
2022/09/03 10:07:18;;;;;;;5.40;1.50;;;25.30;1.00;;;;;;5069413;28;20483;-82
2022/09/03 10:09:45;;;;;;;9.57;1.80;;;25.20;1.00;;;;;;5069554;28;20447;-82
2022/09/03 10:12:18;;;;;;;8.47;2.13;;;25.40;1.00;;;;;;5067658;28;20447;-84
2022/09/03 10:14:51;;;;;;;8.93;1.70;;;26.30;1.00;;;;;;5067208;28;20458;-83
2022/09/03 10:17:24;;;;;;;7.40;1.63;;;26.70;1.00;;;;;;5064252;28;20429;-83
2022/09/03 10:22:52;;;;;;;6.30;1.83;;;26.40;1.00;;;;;;5064844;28;20482;-84
2022/09/03 10:25:23;;;;;;;4.47;1.50;;;25.70;1.00;;;;;;5057532;28;20471;-85
2022/09/03 10:27:52;;;;;;;4.67;1.77;;;25.40;1.00;;;;;;5047753;28;20456;-85
2022/09/03 10:30:19;;;;;;;6.20;1.50;;;26.10;1.00;;;;;;5055821;28;20456;-84
2022/09/03 10:33:01;;;;;;;4.30;1.50;;;26.50;1.00;;;;;;5055141;28;20418;-86
2022/09/03 10:35:31;;;;;;;6.93;1.83;;;26.50;1.00;;;;;;5052513;28;20471;-87
2022/09/03 10:38:10;;;;;;;6.20;1.70;;;26.10;1.00;;;;;;5056341;28;20498;-84
2022/09/03 10:40:40;;;;;;;5.20;1.50;;;26.30;1.00;;;;;;5056212;28;20534;-86
2022/09/03 10:43:28;;;;;;;5.93;1.90;;;26.10;1.00;;;;;;5056180;28;20537;-85
2022/09/03 10:46:05;;;;;;;7.03;1.67;;;26.10;1.00;;;;;;5055332;28;20978;-86
2022/09/03 10:48:50;;;;;;;6.70;2.30;;;26.20;1.00;;;;;;5052182;28;20516;-86
2022/09/03 10:51:26;;;;;;;5.00;1.90;;;26.50;1.00;;;;;;5053618;28;20515;-87
2022/09/03 10:54:19;;;;;;;7.03;1.90;;;26.90;1.00;;;;;;5056541;28;20455;-88
2022/09/03 10:56:54;;;;;;;5.20;1.90;;;27.60;1.00;;;;;;5056437;28;20517;-87
2022/09/03 10:59:35;;;;;;;5.40;1.80;;;27.60;1.00;;;;;;5058094;28;20450;-87
2022/09/03 11:02:17;;;;;;;8.13;2.07;;;27.30;1.00;;;;;;5058818;28;20475;-87
2022/09/03 11:04:53;;;;;;;4.73;2.10;;;26.90;1.00;;;;;;5056512;28;20455;-87
2022/09/03 11:17:18;;;;;;;6.43;2.37;;;26.80;1.00;;;;;;5064787;28;20498;-88
2022/09/03 11:47:22;;;;;;;5.67;2.53;;;29.10;1.00;;;;;;5047517;28;20433;-89
2022/09/03 12:00:53;;;;;;;7.07;2.53;;;30.40;1.00;;;;;;4951113;29;20526;-89
2022/09/03 12:03:53;;;;;;;8.27;2.93;;;31.00;1.00;;;;;;4951298;29;20454;-89
2022/09/03 12:06:57;;;;;;;5.63;2.70;;;30.20;1.00;;;;;;4981380;28;20454;-86
2022/09/03 12:09:39;;;;;;;9.17;3.03;;;30.30;1.00;;;;;;5040290;28;20480;-86
2022/09/03 12:12:27;;;;;;;11.17;2.37;;;30.40;1.00;;;;;;5075860;28;20427;-86
2022/09/03 12:15:09;;;;;;;5.13;2.17;;;30.70;1.00;;;;;;5076135;28;20873;-86
2022/09/03 12:17:48;;;;;;;7.40;2.30;;;30.80;1.00;;;;;;5078781;28;20504;-86
2022/09/03 12:20:17;;;;;;;5.03;1.73;;;31.30;1.00;;;;;;5075563;28;20516;-87
2022/09/03 12:22:54;;;;;;;5.33;2.70;;;31.90;1.00;;;;;;5075636;28;20445;-86
2022/09/03 12:25:21;;;;;;;6.60;2.57;;;31.30;1.00;;;;;;5075828;28;20450;-85
2022/09/03 12:27:48;;;;;;;5.80;2.60;;;31.40;1.00;;;;;;5075538;28;20474;-86
2022/09/03 12:30:17;;;;;;;5.10;2.47;;;30.80;1.00;;;;;;5075972;28;20429;-85
2022/09/03 12:32:46;;;;;;;7.70;2.63;;;29.80;1.00;;;;;;5075414;28;20446;-86
2022/09/03 12:35:14;;;;;;;8.93;2.90;;;30.30;1.00;;;;;;5075810;28;20458;-85
2022/09/03 12:37:43;;;;;;;5.37;2.63;;;30.60;1.00;;;;;;5075764;28;20444;-85
2022/09/03 12:40:20;;;;;;;6.43;2.20;;;30.70;1.00;;;;;;5075494;28;20454;-85
2022/09/03 12:42:47;;;;;;;5.57;2.40;;;31.30;1.00;;;;;;5075987;28;20444;-86
2022/09/03 12:45:15;;;;;;;4.90;2.03;;;31.20;1.00;;;;;;5075185;28;20473;-85
2022/09/03 12:47:45;;;;;;;5.20;2.53;;;31.40;1.00;;;;;;5075537;28;20466;-86
2022/09/03 12:50:15;;;;;;;6.43;2.67;;;32.00;1.00;;;;;;5075100;28;20465;-87
2022/09/03 12:52:44;;;;;;;5.33;2.23;;;32.90;1.00;;;;;;5075543;28;20454;-85
2022/09/03 12:55:29;;;;;;;6.00;2.77;;;32.60;1.00;;;;;;5074927;28;20490;-85
2022/09/03 12:58:04;;;;;;;5.23;2.40;;;32.60;1.00;;;;;;5075421;28;20436;-86
2022/09/03 13:00:45;;;;;;;5.70;3.17;;;32.90;1.00;;;;;;5075249;28;20432;-87
2022/09/03 13:03:33;;;;;;;12.60;2.27;;;32.90;1.00;;;;;;5074903;28;20449;-88
2022/09/03 13:06:11;;;;;;;5.90;2.50;;;32.80;1.00;;;;;;5075072;28;20449;-89
2022/09/03 13:08:45;;;;;;;6.50;2.57;;;33.00;1.00;;;;;;5075376;28;20474;-86
2022/09/03 13:11:24;;;;;;;7.17;2.90;;;33.60;1.00;;;;;;5075533;28;20534;-87
2022/09/03 13:17:20;;;;;;;7.87;2.50;;;33.80;1.00;;;;;;5071994;28;20554;-85
2022/09/03 13:20:14;;;;;;;6.00;2.33;;;33.30;1.00;;;;;;5076309;28;20892;-85
2022/09/03 13:23:14;;;;;;;5.30;2.13;;;32.00;1.00;;;;;;5075820;28;20828;-85
2022/09/03 13:25:56;;;;;;;6.10;2.60;;;32.60;1.00;;;;;;5076653;28;21050;-84
2022/09/03 13:28:38;;;;;;;8.20;2.70;;;33.70;1.00;;;;;;5076098;28;20425;-85
2022/09/03 13:31:39;;;;;;;5.20;2.27;;;33.90;1.00;;;;;;5076573;28;20489;-85
2022/09/03 13:34:30;;;;;;;4.67;1.60;;;34.00;1.00;;;;;;5077023;28;20488;-84
2022/09/03 13:37:16;;;;;;;5.90;2.83;;;33.60;1.00;;;;;;5076395;28;20470;-85
2022/09/03 13:40:21;;;;;;;5.20;2.67;;;33.00;1.00;;;;;;5076015;28;20451;-84
2022/09/03 13:42:54;;;;;;;5.33;2.50;;;33.00;1.00;;;;;;5073988;28;20505;-85
2022/09/03 13:45:31;;;;;;;5.40;2.47;;;32.60;1.00;;;;;;5075708;28;20436;-85
2022/09/03 13:51:03;;;;;;;7.70;2.63;;;33.20;1.00;;;;;;5075288;28;20437;-85
2022/09/03 13:54:12;;;;;;;8.30;2.60;;;33.40;1.00;;;;;;5074897;28;20538;-86
2022/09/03 14:00:45;;;;;;;7.13;2.53;;;34.00;1.00;;;;;;5066275;28;20420;-87
2022/09/03 14:04:01;;;;;;;5.10;2.30;;;34.90;1.00;;;;;;5054601;28;20450;-89
2022/09/03 14:10:40;;;;;;;5.37;2.10;;;33.40;1.00;;;;;;4914457;29;20462;-88
2022/09/03 14:13:55;;;;;;;6.20;2.23;;;33.60;1.00;;;;;;4927197;29;20491;-88
2022/09/03 14:19:53;;;;;;;9.83;2.57;;;32.10;1.00;;;;;;4999594;28;20965;-85
2022/09/03 14:25:11;;;;;;;6.90;2.67;;;32.80;1.00;;;;;;5083873;28;20454;-86
2022/09/03 14:27:38;;;;;;;5.83;2.73;;;30.70;1.00;;;;;;5093790;28;20473;-86
2022/09/03 14:30:08;;;;;;;11.17;2.50;;;30.30;1.00;;;;;;5094029;28;20455;-85
2022/09/03 14:32:44;;;;;;;5.40;2.53;;;30.00;1.00;;;;;;5094569;28;21009;-86
2022/09/03 14:35:39;;;;;;;5.70;2.60;;;29.40;1.00;;;;;;5077822;28;20476;-83